Flight Track Log - Related Links

Times and Time Zones

All times are in EDT time to prevent confusion due to time zone crossing. See the JTL904 flight status page for this flight to view local times or setup timezone preferences in your user account.

Time Position Orientation Groundspeed Altitude Reporting Facility
EDT Latitude Longitude Course Direction KTS MPH feet Rate Location/Type
02:43PM 43.5508 -116.1911 115° Southeast 178 205 4,500  Level Salt Lake Center
02:43PM 43.5403 -116.1594 115° Southeast 216 249 5,900 3,907 Climbing Salt Lake Center
02:44PM 43.5156 -116.0631 109° East 255 293 10,100 3,919 Climbing Salt Lake Center
02:45PM 43.5800 -115.9936 38° Northeast 306 352 14,000 3,823 Climbing Salt Lake Center
02:46PM 43.6628 -116.0278 343° North 326 375 18,000 4,390 Climbing Salt Lake Center
02:47PM 43.7500 -116.0789 337° Northwest 337 388 23,000 4,439 Climbing Salt Lake Center
02:48PM 43.8400 -116.1172 343° North 339 390 27,100 2,710 Climbing Salt Lake Center
02:49PM 43.9350 -116.1672 339° North 369 425 28,600 2,081 Climbing Salt Lake Center
02:50PM 44.0383 -116.2178 341° North 390 449 31,400 1,659 Climbing Salt Lake Center
02:51PM 44.1675 -116.2822 340° North 414 476 32,000 293 Climbing Salt Lake Center
02:52PM 44.2828 -116.3392 341° North 429 494 32,000  Level Salt Lake Center
02:53PM 44.3958 -116.3964 340° North 429 494 32,000  Level Salt Lake Center
02:54PM 44.5083 -116.4533 340° North 428 493 32,000  Level Salt Lake Center
02:55PM 44.6194 -116.5092 340° North 425 489 32,000  Level Salt Lake Center
02:56PM 44.7308 -116.5650 340° North 424 488 32,000  Level Salt Lake Center
02:57PM 44.8417 -116.6217 340° North 424 488 32,000  Level Salt Lake Center
02:58PM 44.9547 -116.6617 346° North 423 487 32,000  Level Salt Lake Center
03:00PM 45.1753 -116.6739 358° North 439 505 32,000  Level Seattle Center
03:01PM 45.2969 -116.6867 356° North 439 505 32,000 -148 Level Seattle Center
03:02PM 45.4197 -116.7025 355° North 442 509 31,700 -1,230 Descending Seattle Center
03:03PM 45.5378 -116.7161 355° North 427 491 29,500 -2,557 Descending Seattle Center
03:04PM 45.6661 -116.7322 355° North 413 475 26,500 -2,705 Descending Seattle Center
03:05PM 45.7756 -116.7453 355° North 401 461 24,000 -2,508 Descending Seattle Center
03:06PM 45.8831 -116.7561 356° North 392 451 21,400 -2,508 Descending Seattle Center
03:07PM 45.9878 -116.7686 355° North 383 441 18,900 -2,557 Descending Seattle Center
03:08PM 46.0875 -116.7992 348° North 368 423 16,200 -2,557 Descending Seattle Center
03:09PM 46.1867 -116.8250 350° North 367 422 13,700 -2,410 Descending Seattle Center
03:10PM 46.2878 -116.8242 360° North 364 419 11,300 -1,967 Descending Seattle Center
03:11PM 46.3803 -116.8278 358° North 350 403 9,700 -1,426 Descending Seattle Center
03:12PM 46.4617 -116.8317 358° North 318 366 8,400 -1,574 Descending Seattle Center
03:13PM 46.5364 -116.8367 357° North 290 334 6,500 -1,623 Descending Seattle Center
03:14PM 46.6108 -116.8164 11° North 276 318 5,100 -738 Descending Seattle Center
03:15PM 46.6778 -116.7847 18° North 265 305 5,000 -49 Descending Seattle Center
03:16PM 46.7236 -116.8439 319° Northwest 218 251 5,000 -148 Level Seattle Center
03:17PM 46.7431 -116.9108 293° West 191 220 4,700 -295 Descending Seattle Center
03:18PM 46.7553 -116.9700 287° West 171 197 4,400 -443 Descending Seattle Center
03:19PM 46.7617 -117.0258 280° West 160 184 3,800 -639 Descending Seattle Center
03:21PM 46.7547 -117.0694 257° West 131 151 3,100 -492 Descending Seattle Center
03:22PM 46.7450 -117.1097 251° West 125 144 2,800 -295 Descending Seattle Center

Login

Don't have an account? Register now (free) for customized features, flight alerts, and more!